Darstellungsparameter: Aktuell verwendete Einstellungen:
Skalierung der Graphiken ... ?
xyx+y,   Skalierungsfaktor:      Skalierung: Modus: x, Faktor: 1
Darstellungszeitraum ... ?
Vom - - bis: - -   Zeitraum: 31.10.2021 - 31.10.2021
Min/Max/Avg-Anzeige ... ?
Zeige MMA aktuell
Zeige MMA Monat
Zeige MMA alles
Zeige --A aktuell
Zeige --A Monat
Zeige --A alles
Keine MMA-Anzeige
MMA:
Keine MMA-Graphiken
MMA-Basis: 31.10.2021 - 31.10.2021
Quicknavigation für Darstellung... ?
Tage:      1T, 2T, 3T, 5T -1T -2T -3T -5T +1T +2T +3T +5T
Wochen: 1W, 2W, 3W -1W -2W -3W +1W +2W +3W
Monate: 1M, 3M, 6M -1M -3M -6M +1M +3M +6M
Jahre:    1J, 3J, 5J, 10J -1J -3J -5J -10J +1J +3J +5J +10J
Nutze für die Darstellung ... ?
Originaldaten oder Mittelwerte auf ...
Stundenbasis Tagesbasis Wochenbasis
Monatsbasis Jahresbasis      Datenbasis: Original-Daten
Darstellen als:
Statistik (Auto) Statistik J:M      Darstellung:
Zur Graphik,    zurück zur Übersicht aller Sensoren.
 
Tabellarische Datenbersicht: ?
 
Sensor: Nr:Datum:Temp:Abs-Feuchte:Windchill:Wind:
Aussen-T/F 1 31-10-2021 00:00:00 12.5 C 10.44 g/m*3 12.5 C 0 km/h
2 31-10-2021 00:05:00 12.4 C 10.38 g/m*3 12.4 C 1.6 km/h
3 31-10-2021 00:10:00 12.4 C 10.38 g/m*3 12.4 C 0 km/h
4 31-10-2021 00:15:00 12.4 C 10.27 g/m*3 12.4 C 1.6 km/h
5 31-10-2021 00:20:00 12.4 C 10.38 g/m*3 12.4 C 1.6 km/h
6 31-10-2021 00:25:00 12.6 C 10.51 g/m*3 12.6 C 6.4 km/h
7 31-10-2021 00:30:00 12.7 C 10.58 g/m*3 12.7 C 6.4 km/h
8 31-10-2021 00:35:00 12.7 C 10.58 g/m*3 12.7 C 4.8 km/h
9 31-10-2021 00:40:00 12.8 C 10.64 g/m*3 12.8 C 3.2 km/h
10 31-10-2021 00:45:00 12.8 C 10.64 g/m*3 12.8 C 8.1 km/h
11 31-10-2021 00:50:00 12.9 C 10.71 g/m*3 12.9 C 8.1 km/h
12 31-10-2021 00:55:00 12.9 C 10.71 g/m*3 12.9 C 0 km/h
13 31-10-2021 01:00:00 12.9 C 10.71 g/m*3 12.9 C 3.2 km/h
14 31-10-2021 01:05:00 12.9 C 10.71 g/m*3 12.9 C 3.2 km/h
15 31-10-2021 01:10:00 12.8 C 10.64 g/m*3 12.8 C 1.6 km/h
16 31-10-2021 01:15:00 12.8 C 10.64 g/m*3 12.8 C 4.8 km/h
17 31-10-2021 01:20:00 12.8 C 10.64 g/m*3 12.8 C 0 km/h
18 31-10-2021 01:25:00 12.7 C 10.58 g/m*3 12.7 C 0 km/h
19 31-10-2021 01:30:00 12.7 C 10.58 g/m*3 12.7 C 1.6 km/h
20 31-10-2021 01:35:00 12.7 C 10.58 g/m*3 12.7 C 1.6 km/h
21 31-10-2021 01:40:00 12.7 C 10.58 g/m*3 12.7 C 1.6 km/h
22 31-10-2021 01:45:00 12.7 C 10.58 g/m*3 12.7 C 1.6 km/h
23 31-10-2021 01:50:00 12.6 C 10.51 g/m*3 12.6 C 3.2 km/h
24 31-10-2021 01:55:00 12.6 C 10.51 g/m*3 12.6 C 3.2 km/h
25 31-10-2021 02:00:00 12.6 C 10.51 g/m*3 12.6 C 0 km/h
Sensor: Nr:Datum:Temp:Abs-Feuchte:Windchill:Wind:
Aussen-T/F 26 31-10-2021 02:05:00 12.6 C 10.51 g/m*3 12.6 C 0 km/h
27 31-10-2021 02:10:00 12.6 C 10.51 g/m*3 12.6 C 0 km/h
28 31-10-2021 02:15:00 12.5 C 10.44 g/m*3 12.5 C 0 km/h
29 31-10-2021 02:20:00 12.5 C 10.44 g/m*3 12.5 C 0 km/h
30 31-10-2021 02:25:00 12.4 C 10.38 g/m*3 12.4 C 0 km/h
31 31-10-2021 02:30:00 12.3 C 10.32 g/m*3 12.3 C 0 km/h
32 31-10-2021 02:35:00 12.3 C 10.32 g/m*3 12.3 C 0 km/h
33 31-10-2021 02:40:00 12.2 C 10.25 g/m*3 12.2 C 0 km/h
34 31-10-2021 02:45:00 12.1 C 10.19 g/m*3 12.1 C 0 km/h
35 31-10-2021 02:50:00 11.9 C 10.06 g/m*3 11.9 C 0 km/h
36 31-10-2021 02:55:00 11.8 C 10 g/m*3 11.8 C 0 km/h
37 31-10-2021 04:00:00 11.7 C 9.94 g/m*3 11.7 C 0 km/h
38 31-10-2021 04:05:00 10.3 C 9.1 g/m*3 10.3 C 0 km/h
39 31-10-2021 04:05:00 11 C 9.51 g/m*3 11 C 0 km/h
40 31-10-2021 04:10:00 10.9 C 9.45 g/m*3 10.9 C 0 km/h
41 31-10-2021 04:10:00 10.2 C 9.14 g/m*3 10.2 C 0 km/h
42 31-10-2021 04:15:00 10.8 C 9.39 g/m*3 10.8 C 0 km/h
43 31-10-2021 04:15:00 10.2 C 9.14 g/m*3 10.2 C 0 km/h
44 31-10-2021 04:20:00 10.8 C 9.39 g/m*3 10.8 C 0 km/h
45 31-10-2021 04:20:00 10.1 C 9.08 g/m*3 10.1 C 0 km/h
46 31-10-2021 04:25:00 10.8 C 9.39 g/m*3 10.8 C 0 km/h
47 31-10-2021 04:25:00 10.1 C 9.08 g/m*3 10.1 C 0 km/h
48 31-10-2021 04:30:00 10.1 C 9.08 g/m*3 10.1 C 0 km/h
49 31-10-2021 04:30:00 10.7 C 9.33 g/m*3 10.7 C 0 km/h
50 31-10-2021 04:35:00 10.2 C 9.14 g/m*3 10.2 C 0 km/h
Sensor: Nr:Datum:Temp:Abs-Feuchte:Windchill:Wind:
Aussen-T/F 51 31-10-2021 04:35:00 10.7 C 9.43 g/m*3 10.7 C 0 km/h
52 31-10-2021 04:40:00 10.3 C 9.19 g/m*3 10.3 C 0 km/h
53 31-10-2021 04:40:00 10.6 C 9.37 g/m*3 10.6 C 0 km/h
54 31-10-2021 04:45:00 10.3 C 9.19 g/m*3 10.3 C 0 km/h
55 31-10-2021 04:45:00 10.6 C 9.37 g/m*3 10.6 C 0 km/h
56 31-10-2021 04:50:00 10.6 C 9.37 g/m*3 10.6 C 0 km/h
57 31-10-2021 04:50:00 10.4 C 9.25 g/m*3 10.4 C 0 km/h
58 31-10-2021 04:55:00 10.4 C 9.25 g/m*3 10.4 C 0 km/h
59 31-10-2021 04:55:00 10.4 C 9.25 g/m*3 10.4 C 0 km/h
60 31-10-2021 05:00:00 10.4 C 9.16 g/m*3 10.4 C 0 km/h
61 31-10-2021 05:00:00 10.3 C 9.19 g/m*3 10.3 C 0 km/h
62 31-10-2021 05:05:00 10.3 C 9.19 g/m*3 10.3 C 0 km/h
63 31-10-2021 05:10:00 10.2 C 9.14 g/m*3 10.2 C 0 km/h
64 31-10-2021 05:15:00 10.2 C 9.14 g/m*3 10.2 C 0 km/h
65 31-10-2021 05:20:00 10.2 C 9.14 g/m*3 10.2 C 0 km/h
66 31-10-2021 05:25:00 10.3 C 9.19 g/m*3 10.3 C 1.6 km/h
67 31-10-2021 05:30:00 10.4 C 9.35 g/m*3 10.4 C 0 km/h
68 31-10-2021 05:35:00 10.5 C 9.41 g/m*3 10.5 C 0 km/h
69 31-10-2021 05:40:00 10.6 C 9.47 g/m*3 10.6 C 0 km/h
70 31-10-2021 05:45:00 10.6 C 9.47 g/m*3 10.6 C 0 km/h
71 31-10-2021 05:50:00 10.6 C 9.37 g/m*3 10.6 C 0 km/h
72 31-10-2021 05:55:00 10.4 C 9.25 g/m*3 10.4 C 0 km/h
73 31-10-2021 06:00:00 10.3 C 9.19 g/m*3 10.3 C 0 km/h
74 31-10-2021 06:05:00 10.3 C 9.19 g/m*3 10.3 C 0 km/h
75 31-10-2021 06:10:00 10.2 C 9.14 g/m*3 10.2 C 0 km/h
Sensor: Nr:Datum:Temp:Abs-Feuchte:Windchill:Wind:
Aussen-T/F 76 31-10-2021 06:15:00 10 C 9.02 g/m*3 10 C 0 km/h
77 31-10-2021 06:20:00 9.8 C 8.91 g/m*3 9.8 C 0 km/h
78 31-10-2021 06:25:00 9.8 C 8.91 g/m*3 9.8 C 0 km/h
79 31-10-2021 06:30:00 9.7 C 8.85 g/m*3 9.7 C 0 km/h
80 31-10-2021 06:35:00 9.6 C 8.79 g/m*3 9.6 C 0 km/h
81 31-10-2021 06:40:00 9.6 C 8.79 g/m*3 9.6 C 0 km/h
82 31-10-2021 06:45:00 9.5 C 8.74 g/m*3 9.5 C 1.6 km/h
83 31-10-2021 06:50:00 9.5 C 8.74 g/m*3 9.5 C 0 km/h
84 31-10-2021 06:55:00 9.4 C 8.68 g/m*3 9.4 C 0 km/h
85 31-10-2021 07:00:00 9.5 C 8.74 g/m*3 9.5 C 0 km/h
86 31-10-2021 07:05:00 9.5 C 8.74 g/m*3 9.5 C 0 km/h
87 31-10-2021 07:10:00 9.6 C 8.79 g/m*3 9.6 C 0 km/h
88 31-10-2021 07:15:00 9.6 C 8.79 g/m*3 9.6 C 0 km/h
89 31-10-2021 07:20:00 9.6 C 8.79 g/m*3 9.6 C 0 km/h
90 31-10-2021 07:25:00 9.6 C 8.79 g/m*3 9.6 C 0 km/h
91 31-10-2021 07:30:00 9.4 C 8.68 g/m*3 9.4 C 1.6 km/h
92 31-10-2021 07:35:00 9.4 C 8.77 g/m*3 9.4 C 1.6 km/h
93 31-10-2021 07:40:00 9.4 C 8.77 g/m*3 9.4 C 0 km/h
94 31-10-2021 07:45:00 9.5 C 8.83 g/m*3 9.5 C 0 km/h
95 31-10-2021 07:50:00 9.4 C 8.77 g/m*3 9.4 C 0 km/h
96 31-10-2021 07:55:00 9.5 C 8.83 g/m*3 9.5 C 0 km/h
97 31-10-2021 08:00:00 9.4 C 8.77 g/m*3 9.4 C 0 km/h
98 31-10-2021 08:05:00 9.4 C 8.77 g/m*3 9.4 C 0 km/h
99 31-10-2021 08:10:00 9.4 C 8.77 g/m*3 9.4 C 0 km/h
100 31-10-2021 08:15:00 9.4 C 8.77 g/m*3 9.4 C 0 km/h
Sensor: Nr:Datum:Temp:Abs-Feuchte:Windchill:Wind:
Aussen-T/F 101 31-10-2021 08:20:00 9.6 C 8.89 g/m*3 9.6 C 0 km/h
102 31-10-2021 08:25:00 9.8 C 9 g/m*3 9.8 C 0 km/h
103 31-10-2021 08:30:00 9.9 C 9.06 g/m*3 9.9 C 0 km/h
104 31-10-2021 08:35:00 10 C 9.11 g/m*3 10 C 0 km/h
105 31-10-2021 08:40:00 10.1 C 9.17 g/m*3 10.1 C 0 km/h
106 31-10-2021 08:45:00 10.1 C 9.17 g/m*3 10.1 C 0 km/h
107 31-10-2021 08:50:00 10.2 C 9.23 g/m*3 10.2 C 0 km/h
108 31-10-2021 08:55:00 10.2 C 9.23 g/m*3 10.2 C 0 km/h
109 31-10-2021 09:00:00 10.3 C 9.29 g/m*3 10.3 C 0 km/h
110 31-10-2021 09:05:00 10.3 C 9.29 g/m*3 10.3 C 0 km/h
111 31-10-2021 09:10:00 10.4 C 9.35 g/m*3 10.4 C 0 km/h
112 31-10-2021 09:15:00 10.6 C 9.47 g/m*3 10.6 C 0 km/h
113 31-10-2021 09:20:00 10.7 C 9.53 g/m*3 10.7 C 0 km/h
114 31-10-2021 09:25:00 10.9 C 9.65 g/m*3 10.9 C 0 km/h
115 31-10-2021 09:30:00 11 C 9.71 g/m*3 11 C 0 km/h
116 31-10-2021 09:35:00 11.1 C 9.77 g/m*3 11.1 C 0 km/h
117 31-10-2021 09:40:00 11.1 C 9.77 g/m*3 11.1 C 0 km/h
118 31-10-2021 09:45:00 11.2 C 9.83 g/m*3 11.2 C 0 km/h
119 31-10-2021 09:50:00 11.2 C 9.83 g/m*3 11.2 C 0 km/h
120 31-10-2021 09:55:00 11.3 C 9.89 g/m*3 11.3 C 0 km/h
121 31-10-2021 10:00:00 11.6 C 10.08 g/m*3 11.6 C 0 km/h
122 31-10-2021 10:05:00 11.8 C 10.21 g/m*3 11.8 C 0 km/h
123 31-10-2021 10:10:00 12.2 C 10.58 g/m*3 12.2 C 1.6 km/h
124 31-10-2021 10:15:00 12.4 C 10.71 g/m*3 12.4 C 0 km/h
125 31-10-2021 10:20:00 12.7 C 10.91 g/m*3 12.7 C 0 km/h
Sensor: Nr:Datum:Temp:Abs-Feuchte:Windchill:Wind:
Aussen-T/F 126 31-10-2021 10:25:00 12.9 C 11.05 g/m*3 12.9 C 0 km/h
127 31-10-2021 10:30:00 13.3 C 11.32 g/m*3 13.3 C 1.6 km/h
128 31-10-2021 10:35:00 13.5 C 11.46 g/m*3 13.5 C 0 km/h
129 31-10-2021 10:40:00 13.7 C 11.6 g/m*3 13.7 C 0 km/h
130 31-10-2021 10:45:00 13.8 C 11.68 g/m*3 13.8 C 0 km/h
131 31-10-2021 10:50:00 14.1 C 11.89 g/m*3 14.1 C 0 km/h
132 31-10-2021 10:55:00 14.2 C 11.97 g/m*3 14.2 C 0 km/h
133 31-10-2021 11:00:00 14.4 C 12.11 g/m*3 14.4 C 1.6 km/h
134 31-10-2021 11:05:00 14.6 C 12.26 g/m*3 14.6 C 3.2 km/h
135 31-10-2021 11:10:00 14.6 C 12.26 g/m*3 14.6 C 4.8 km/h
136 31-10-2021 11:15:00 14.6 C 12.26 g/m*3 14.6 C 1.6 km/h
137 31-10-2021 11:20:00 14.7 C 12.34 g/m*3 14.7 C 1.6 km/h
138 31-10-2021 11:25:00 14.7 C 12.34 g/m*3 14.7 C 1.6 km/h
139 31-10-2021 11:30:00 14.7 C 12.21 g/m*3 14.7 C 1.6 km/h
140 31-10-2021 11:35:00 14.7 C 12.21 g/m*3 14.7 C 1.6 km/h
141 31-10-2021 11:40:00 14.8 C 12.29 g/m*3 14.8 C 1.6 km/h
142 31-10-2021 11:45:00 14.8 C 12.29 g/m*3 14.8 C 0 km/h
143 31-10-2021 11:50:00 14.9 C 12.36 g/m*3 14.9 C 6.4 km/h
144 31-10-2021 11:55:00 15 C 12.44 g/m*3 15 C 6.4 km/h
145 31-10-2021 12:00:00 15.1 C 12.39 g/m*3 15.1 C 6.4 km/h
146 31-10-2021 12:05:00 15.2 C 12.33 g/m*3 15.2 C 4.8 km/h
147 31-10-2021 12:10:00 15.3 C 12.28 g/m*3 15.3 C 1.6 km/h
148 31-10-2021 12:15:00 15.5 C 12.43 g/m*3 15.5 C 1.6 km/h
149 31-10-2021 12:20:00 15.7 C 12.44 g/m*3 15.7 C 3.2 km/h
150 31-10-2021 12:25:00 15.8 C 12.52 g/m*3 15.8 C 1.6 km/h
Sensor: Nr:Datum:Temp:Abs-Feuchte:Windchill:Wind:
Aussen-T/F 151 31-10-2021 12:30:00 15.9 C 12.46 g/m*3 15.9 C 8.1 km/h
152 31-10-2021 12:35:00 16.1 C 12.47 g/m*3 16.1 C 4.8 km/h
153 31-10-2021 12:40:00 16.3 C 12.62 g/m*3 16.3 C 3.2 km/h
154 31-10-2021 12:45:00 16.4 C 12.56 g/m*3 16.4 C 4.8 km/h
155 31-10-2021 12:50:00 16.6 C 12.71 g/m*3 16.6 C 4.8 km/h
156 31-10-2021 12:55:00 16.8 C 12.72 g/m*3 16.8 C 3.2 km/h
157 31-10-2021 13:00:00 16.9 C 12.8 g/m*3 16.9 C 1.6 km/h
158 31-10-2021 13:05:00 17.1 C 12.66 g/m*3 17.1 C 3.2 km/h
159 31-10-2021 13:10:00 17.2 C 12.59 g/m*3 17.2 C 3.2 km/h
160 31-10-2021 13:15:00 17.3 C 12.67 g/m*3 17.3 C 4.8 km/h
161 31-10-2021 13:20:00 17.4 C 12.75 g/m*3 17.4 C 4.8 km/h
162 31-10-2021 13:25:00 17.4 C 12.75 g/m*3 17.4 C 3.2 km/h
163 31-10-2021 13:30:00 17.4 C 12.6 g/m*3 17.4 C 4.8 km/h
164 31-10-2021 13:35:00 17.4 C 12.6 g/m*3 17.4 C 6.4 km/h
165 31-10-2021 13:40:00 17.4 C 12.6 g/m*3 17.4 C 4.8 km/h
166 31-10-2021 13:45:00 17.3 C 12.52 g/m*3 17.3 C 3.2 km/h
167 31-10-2021 13:50:00 17.3 C 12.52 g/m*3 17.3 C 6.4 km/h
168 31-10-2021 13:55:00 17.3 C 12.67 g/m*3 17.3 C 3.2 km/h
169 31-10-2021 14:00:00 17.3 C 12.52 g/m*3 17.3 C 3.2 km/h
170 31-10-2021 14:05:00 17.3 C 12.52 g/m*3 17.3 C 4.8 km/h
171 31-10-2021 14:10:00 17.3 C 12.52 g/m*3 17.3 C 3.2 km/h
172 31-10-2021 14:15:00 17.3 C 12.52 g/m*3 17.3 C 1.6 km/h
173 31-10-2021 14:20:00 17.4 C 12.6 g/m*3 17.4 C 3.2 km/h
174 31-10-2021 14:25:00 17.5 C 12.82 g/m*3 17.5 C 1.6 km/h
175 31-10-2021 14:30:00 17.6 C 12.75 g/m*3 17.6 C 9.7 km/h
Sensor: Nr:Datum:Temp:Abs-Feuchte:Windchill:Wind:
Aussen-T/F 176 31-10-2021 14:35:00 17.7 C 12.82 g/m*3 17.7 C 3.2 km/h
177 31-10-2021 14:40:00 17.8 C 13.05 g/m*3 17.8 C 1.6 km/h
178 31-10-2021 14:45:00 17.8 C 12.75 g/m*3 17.8 C 4.8 km/h
179 31-10-2021 14:50:00 17.9 C 12.98 g/m*3 17.9 C 3.2 km/h
180 31-10-2021 14:55:00 18.1 C 13.29 g/m*3 18.1 C 3.2 km/h
181 31-10-2021 15:00:00 18.1 C 12.98 g/m*3 18.1 C 4.8 km/h
182 31-10-2021 15:05:00 18.1 C 13.13 g/m*3 18.1 C 0 km/h
183 31-10-2021 15:10:00 18.2 C 13.21 g/m*3 18.2 C 1.6 km/h
184 31-10-2021 15:15:00 18.2 C 13.21 g/m*3 18.2 C 3.2 km/h
185 31-10-2021 15:20:00 18.2 C 12.75 g/m*3 18.2 C 6.4 km/h
186 31-10-2021 15:25:00 18.2 C 13.06 g/m*3 18.2 C 1.6 km/h
187 31-10-2021 15:30:00 18.2 C 12.9 g/m*3 18.2 C 6.4 km/h
188 31-10-2021 15:35:00 18.1 C 12.67 g/m*3 18.1 C 9.7 km/h
189 31-10-2021 15:40:00 18.1 C 12.82 g/m*3 18.1 C 6.4 km/h
190 31-10-2021 15:45:00 17.9 C 12.67 g/m*3 17.9 C 3.2 km/h
191 31-10-2021 15:50:00 17.8 C 12.6 g/m*3 17.8 C 6.4 km/h
192 31-10-2021 15:55:00 17.8 C 12.75 g/m*3 17.8 C 0 km/h
193 31-10-2021 16:00:00 17.7 C 12.52 g/m*3 17.7 C 4.8 km/h
194 31-10-2021 16:05:00 17.6 C 12.6 g/m*3 17.6 C 0 km/h
195 31-10-2021 16:10:00 17.5 C 12.52 g/m*3 17.5 C 1.6 km/h
196 31-10-2021 16:15:00 17.4 C 12.45 g/m*3 17.4 C 0 km/h
197 31-10-2021 16:20:00 17.3 C 12.67 g/m*3 17.3 C 0 km/h
198 31-10-2021 16:25:00 17.2 C 12.59 g/m*3 17.2 C 0 km/h
199 31-10-2021 16:30:00 16.9 C 12.37 g/m*3 16.9 C 0 km/h
200 31-10-2021 16:35:00 16.7 C 12.22 g/m*3 16.7 C 0 km/h
Sensor: Nr:Datum:Temp:Abs-Feuchte:Windchill:Wind:
Aussen-T/F 201 31-10-2021 16:40:00 16.5 C 12.22 g/m*3 16.5 C 0 km/h
202 31-10-2021 16:45:00 16.2 C 12 g/m*3 16.2 C 0 km/h
203 31-10-2021 16:50:00 15.9 C 11.92 g/m*3 15.9 C 0 km/h
204 31-10-2021 16:55:00 15.8 C 11.85 g/m*3 15.8 C 0 km/h
205 31-10-2021 17:00:00 15.6 C 11.84 g/m*3 15.6 C 0 km/h
206 31-10-2021 17:05:00 15.5 C 11.9 g/m*3 15.5 C 0 km/h
207 31-10-2021 17:10:00 15.4 C 11.82 g/m*3 15.4 C 0 km/h
208 31-10-2021 17:15:00 15.3 C 11.75 g/m*3 15.3 C 0 km/h
209 31-10-2021 17:20:00 15.2 C 11.68 g/m*3 15.2 C 0 km/h
210 31-10-2021 17:25:00 15.1 C 11.61 g/m*3 15.1 C 0 km/h
211 31-10-2021 17:30:00 15 C 11.67 g/m*3 15 C 0 km/h
212 31-10-2021 17:35:00 14.8 C 11.53 g/m*3 14.8 C 1.6 km/h
213 31-10-2021 17:40:00 14.6 C 11.26 g/m*3 14.6 C 0 km/h
214 31-10-2021 17:45:00 14.4 C 11.25 g/m*3 14.4 C 0 km/h
215 31-10-2021 17:50:00 14.2 C 11.11 g/m*3 14.2 C 0 km/h
216 31-10-2021 17:55:00 14.1 C 11.04 g/m*3 14.1 C 1.6 km/h
217 31-10-2021 18:00:00 13.9 C 10.91 g/m*3 13.9 C 1.6 km/h
218 31-10-2021 18:05:00 13.8 C 10.96 g/m*3 13.8 C 1.6 km/h
219 31-10-2021 18:10:00 13.7 C 10.89 g/m*3 13.7 C 0 km/h
220 31-10-2021 18:15:00 13.5 C 10.76 g/m*3 13.5 C 0 km/h
221 31-10-2021 18:20:00 13.4 C 10.81 g/m*3 13.4 C 1.6 km/h
222 31-10-2021 18:25:00 13.4 C 10.81 g/m*3 13.4 C 0 km/h
223 31-10-2021 18:30:00 13.3 C 10.74 g/m*3 13.3 C 0 km/h
224 31-10-2021 18:35:00 13.3 C 10.74 g/m*3 13.3 C 3.2 km/h
225 31-10-2021 18:40:00 13.3 C 10.74 g/m*3 13.3 C 1.6 km/h
Sensor: Nr:Datum:Temp:Abs-Feuchte:Windchill:Wind:
Aussen-T/F 226 31-10-2021 18:45:00 13.2 C 10.68 g/m*3 13.2 C 1.6 km/h
227 31-10-2021 18:50:00 13.1 C 10.73 g/m*3 13.1 C 0 km/h
228 31-10-2021 18:55:00 13.1 C 10.73 g/m*3 13.1 C 3.2 km/h
229 31-10-2021 19:00:00 13.1 C 10.73 g/m*3 13.1 C 0 km/h
230 31-10-2021 19:05:00 13.1 C 10.73 g/m*3 13.1 C 3.2 km/h
231 31-10-2021 19:10:00 13.1 C 10.84 g/m*3 13.1 C 1.6 km/h
232 31-10-2021 19:15:00 13.1 C 10.84 g/m*3 13.1 C 0 km/h
233 31-10-2021 19:20:00 13.1 C 10.84 g/m*3 13.1 C 1.6 km/h
234 31-10-2021 19:25:00 13.2 C 10.91 g/m*3 13.2 C 6.4 km/h
235 31-10-2021 19:30:00 13.3 C 10.98 g/m*3 13.3 C 1.6 km/h
236 31-10-2021 19:35:00 13.3 C 10.98 g/m*3 13.3 C 0 km/h
237 31-10-2021 19:40:00 13.4 C 11.04 g/m*3 13.4 C 3.2 km/h
238 31-10-2021 19:45:00 13.6 C 11.18 g/m*3 13.6 C 4.8 km/h
239 31-10-2021 19:50:00 13.7 C 11.25 g/m*3 13.7 C 1.6 km/h
240 31-10-2021 19:55:00 13.8 C 11.32 g/m*3 13.8 C 4.8 km/h
241 31-10-2021 20:00:00 14 C 11.46 g/m*3 14 C 4.8 km/h
242 31-10-2021 20:05:00 14.3 C 11.55 g/m*3 14.3 C 9.7 km/h
243 31-10-2021 20:10:00 14.7 C 11.71 g/m*3 14.7 C 11.3 km/h
244 31-10-2021 20:15:00 14.8 C 11.65 g/m*3 14.8 C 8.1 km/h
245 31-10-2021 20:20:00 14.9 C 11.73 g/m*3 14.9 C 1.6 km/h
246 31-10-2021 20:25:00 15 C 11.8 g/m*3 15 C 4.8 km/h
247 31-10-2021 20:30:00 15.1 C 11.87 g/m*3 15.1 C 6.4 km/h
248 31-10-2021 20:35:00 15.1 C 11.87 g/m*3 15.1 C 1.6 km/h
249 31-10-2021 20:40:00 15.1 C 12 g/m*3 15.1 C 3.2 km/h
250 31-10-2021 20:45:00 15.1 C 12 g/m*3 15.1 C 1.6 km/h
Sensor: Nr:Datum:Temp:Abs-Feuchte:Windchill:Wind:
Aussen-T/F 251 31-10-2021 20:50:00 15.1 C 12 g/m*3 15.1 C 1.6 km/h
252 31-10-2021 20:55:00 15 C 11.93 g/m*3 15 C 1.6 km/h
253 31-10-2021 21:00:00 14.9 C 11.85 g/m*3 14.9 C 1.6 km/h
254 31-10-2021 21:05:00 14.9 C 11.85 g/m*3 14.9 C 1.6 km/h
255 31-10-2021 21:10:00 14.9 C 11.85 g/m*3 14.9 C 8.1 km/h
256 31-10-2021 21:15:00 15.1 C 12 g/m*3 15.1 C 1.6 km/h
257 31-10-2021 21:20:00 15.1 C 12 g/m*3 15.1 C 3.2 km/h
258 31-10-2021 21:25:00 15.2 C 11.94 g/m*3 15.2 C 4.8 km/h
259 31-10-2021 21:30:00 15.3 C 12.01 g/m*3 15.3 C 11.3 km/h
260 31-10-2021 21:35:00 15.5 C 12.03 g/m*3 15.5 C 6.4 km/h
261 31-10-2021 21:40:00 15.7 C 12.04 g/m*3 15.7 C 12.9 km/h
262 31-10-2021 21:45:00 15.8 C 12.11 g/m*3 15.8 C 9.7 km/h
263 31-10-2021 21:50:00 15.8 C 11.98 g/m*3 15.8 C 1.6 km/h
264 31-10-2021 21:55:00 15.9 C 12.05 g/m*3 15.9 C 1.6 km/h
265 31-10-2021 22:00:00 16 C 12.13 g/m*3 16 C 9.7 km/h
266 31-10-2021 22:05:00 16 C 12.13 g/m*3 16 C 8.1 km/h
267 31-10-2021 22:10:00 16.2 C 12.14 g/m*3 16.2 C 4.8 km/h
268 31-10-2021 22:15:00 16.2 C 12.14 g/m*3 16.2 C 3.2 km/h
269 31-10-2021 22:20:00 16.3 C 12.21 g/m*3 16.3 C 1.6 km/h
270 31-10-2021 22:25:00 16.3 C 12.21 g/m*3 16.3 C 11.3 km/h
271 31-10-2021 22:30:00 16.4 C 12.28 g/m*3 16.4 C 6.4 km/h
272 31-10-2021 22:35:00 16.3 C 11.79 g/m*3 16.3 C 19.3 km/h
273 31-10-2021 22:40:00 15.7 C 10.84 g/m*3 15.7 C 14.5 km/h
274 31-10-2021 22:45:00 14.7 C 10.58 g/m*3 14.7 C 12.9 km/h
275 31-10-2021 22:50:00 13.9 C 10.19 g/m*3 13.9 C 11.3 km/h
Sensor: Nr:Datum:Temp:Abs-Feuchte:Windchill:Wind:
Aussen-T/F 276 31-10-2021 22:55:00 13.4 C 10.11 g/m*3 13.4 C 12.9 km/h
277 31-10-2021 23:00:00 13.1 C 10.04 g/m*3 13.1 C 8.1 km/h
278 31-10-2021 23:05:00 12.8 C 9.86 g/m*3 12.8 C 11.3 km/h
279 31-10-2021 23:10:00 12.6 C 9.74 g/m*3 12.6 C 11.3 km/h
280 31-10-2021 23:15:00 12.4 C 9.72 g/m*3 12.4 C 8.1 km/h
281 31-10-2021 23:20:00 12.3 C 9.66 g/m*3 12.3 C 9.7 km/h
282 31-10-2021 23:25:00 12.2 C 9.6 g/m*3 12.2 C 8.1 km/h
283 31-10-2021 23:30:00 12.1 C 9.65 g/m*3 12.1 C 4.8 km/h
284 31-10-2021 23:35:00 12 C 9.59 g/m*3 12 C 3.2 km/h
285 31-10-2021 23:40:00 11.8 C 9.58 g/m*3 11.8 C 4.8 km/h
286 31-10-2021 23:45:00 11.7 C 9.52 g/m*3 11.7 C 1.6 km/h
287 31-10-2021 23:50:00 11.6 C 9.56 g/m*3 11.6 C 1.6 km/h
288 31-10-2021 23:55:00 11.6 C 9.56 g/m*3 11.6 C 1.6 km/h

Legende:
   Min
   Max


Maximal/Minimal-Werte vom 31.10.2021 - 31.10.2021

Sensor Min Max Avg
Temp
(Aussen-T/F)
9.4 °C
31-10-2021  06:55:00
18.2 °C
31-10-2021  15:10:00
13.42 °C
Abs-Feuchte
(Aussen-T/F)
8.68 g/m*3
31-10-2021  06:55:00
13.29 g/m*3
31-10-2021  14:55:00
10.81 g/m*3
Windchill
(Aussen-T/F)
9.4 C
31-10-2021  06:55:00
18.2 C
31-10-2021  15:10:00
13.38 C

Die Daten stammen von einer Davis Vantage Pro 2 Wetter-Station und werden unter Linux mit der Software wview2wettercgi und aufbereitet. Alle Angaben erfolgen ohne Gewähr für ihre Vollständigkeit oder Richtigkeit.
Kontakt: Rainer Krienke krienke@uni-koblenz.de . Meine Webseiten an der Uni Koblenz oder privat.
Version: $Revision: 0.78 $